createdAt,value
2023-05-25T00:01:01.323Z,15.08
2023-05-25T00:03:32.667Z,14.99
2023-05-25T00:06:02.024Z,15.02
2023-05-25T00:08:30.332Z,14.99
2023-05-25T00:10:58.397Z,14.96
2023-05-25T00:13:26.679Z,15.03
2023-05-25T00:15:54.830Z,15.08
2023-05-25T00:18:22.936Z,14.95
2023-05-25T00:20:54.174Z,14.93
2023-05-25T00:23:22.245Z,15.06
2023-05-25T00:25:50.422Z,15.01
2023-05-25T00:28:18.381Z,14.92
2023-05-25T00:30:46.389Z,15.13
2023-05-25T00:33:14.471Z,15.16
2023-05-25T00:35:43.548Z,15.27
2023-05-25T00:38:15.398Z,15.13
2023-05-25T00:40:43.353Z,15.08
2023-05-25T00:43:12.115Z,15.10
2023-05-25T00:45:40.677Z,15.16
2023-05-25T00:48:11.085Z,15.11
2023-05-25T00:50:40.781Z,15.17
2023-05-25T00:53:10.057Z,15.16
2023-05-25T00:55:42.963Z,15.08
2023-05-25T00:58:12.464Z,14.85
2023-05-25T01:00:43.715Z,14.87
2023-05-25T01:03:18.014Z,14.99
2023-05-25T01:05:50.117Z,15.01
2023-05-25T01:08:21.203Z,15.00
2023-05-25T01:10:53.973Z,14.89
2023-05-25T01:13:22.672Z,14.92
2023-05-25T01:15:52.351Z,14.91
2023-05-25T01:18:20.266Z,14.82
2023-05-25T01:20:58.531Z,14.79
2023-05-25T01:23:34.101Z,14.75
2023-05-25T01:26:06.537Z,14.60
2023-05-25T01:28:41.109Z,14.66
2023-05-25T01:31:10.549Z,14.61
2023-05-25T01:33:39.587Z,14.58
2023-05-25T01:36:08.977Z,14.50
2023-05-25T01:38:38.163Z,14.47
2023-05-25T01:41:06.108Z,14.49
2023-05-25T01:43:34.002Z,14.45
2023-05-25T01:46:13.171Z,14.57
2023-05-25T01:48:48.796Z,14.65
2023-05-25T01:51:26.858Z,14.57
2023-05-25T01:53:59.412Z,14.59
2023-05-25T01:56:31.961Z,14.61
2023-05-25T01:59:02.553Z,14.59
2023-05-25T02:01:33.338Z,14.55
2023-05-25T02:04:02.107Z,14.43
2023-05-25T02:06:31.926Z,14.51
2023-05-25T02:09:07.007Z,14.50
2023-05-25T02:11:34.967Z,14.34
2023-05-25T02:14:02.898Z,14.23
2023-05-25T02:16:31.030Z,14.31
2023-05-25T02:19:01.218Z,14.27
2023-05-25T02:21:29.230Z,14.18
2023-05-25T02:23:59.077Z,14.16
2023-05-25T02:26:27.357Z,14.21
2023-05-25T02:28:55.310Z,14.29
2023-05-25T02:31:23.215Z,14.43
2023-05-25T02:33:51.144Z,14.38
2023-05-25T02:36:21.170Z,14.16
2023-05-25T02:38:49.948Z,14.05
2023-05-25T02:41:21.450Z,13.98
2023-05-25T02:43:49.376Z,14.13
2023-05-25T02:46:17.349Z,14.05
2023-05-25T02:48:45.431Z,14.03
2023-05-25T02:51:13.446Z,14.05
2023-05-25T02:53:41.725Z,14.06
2023-05-25T02:56:11.275Z,13.97
2023-05-25T02:58:40.860Z,13.91
2023-05-25T03:01:18.625Z,13.73
2023-05-25T03:03:53.099Z,13.67
2023-05-25T03:06:26.037Z,13.81
2023-05-25T03:08:58.507Z,13.93
2023-05-25T03:11:26.874Z,13.89
2023-05-25T03:13:58.815Z,13.97
2023-05-25T03:16:28.727Z,13.98
2023-05-25T03:18:56.672Z,14.00
2023-05-25T03:21:24.606Z,13.89
2023-05-25T03:23:52.510Z,13.73
2023-05-25T03:26:20.386Z,13.65
2023-05-25T03:28:50.848Z,13.86
2023-05-25T03:31:20.220Z,13.84
2023-05-25T03:33:48.541Z,13.86
2023-05-25T03:36:17.893Z,13.82
2023-05-25T03:38:46.309Z,13.97
2023-05-25T03:41:14.231Z,13.98
2023-05-25T03:43:42.084Z,13.99
2023-05-25T03:46:11.660Z,13.92
2023-05-25T03:48:41.281Z,14.04
2023-05-25T03:51:09.659Z,14.01
2023-05-25T03:53:37.661Z,14.00
2023-05-25T03:56:06.064Z,14.02
2023-05-25T03:58:34.208Z,14.06
2023-05-25T04:01:04.366Z,14.18
2023-05-25T04:03:33.748Z,14.15
2023-05-25T04:06:03.323Z,14.04
2023-05-25T04:08:31.201Z,14.19
2023-05-25T04:10:59.188Z,14.25
2023-05-25T04:13:29.445Z,14.16
2023-05-25T04:15:57.449Z,14.14
2023-05-25T04:18:30.562Z,14.23
2023-05-25T04:21:01.283Z,14.32
2023-05-25T04:23:31.196Z,14.38
2023-05-25T04:25:59.934Z,14.38
2023-05-25T04:28:28.325Z,14.47
2023-05-25T04:31:14.032Z,14.25
2023-05-25T04:33:50.860Z,14.28
2023-05-25T04:36:26.779Z,14.29
2023-05-25T04:38:56.485Z,14.32
2023-05-25T04:41:26.207Z,14.37
2023-05-25T04:44:09.035Z,14.47
2023-05-25T04:46:40.834Z,14.44
2023-05-25T04:49:16.817Z,14.49
2023-05-25T04:51:44.774Z,14.59
2023-05-25T04:54:14.053Z,14.64
2023-05-25T04:56:41.967Z,14.62
2023-05-25T04:59:11.054Z,14.63
2023-05-25T05:01:41.106Z,14.82
2023-05-25T05:04:11.486Z,14.71
2023-05-25T05:06:40.777Z,14.66
2023-05-25T05:09:10.050Z,14.63
2023-05-25T05:11:39.371Z,14.71
2023-05-25T05:14:08.180Z,14.85
2023-05-25T05:16:37.467Z,14.92
2023-05-25T05:19:05.735Z,14.97
2023-05-25T05:21:33.690Z,14.97
2023-05-25T05:24:04.795Z,15.05
2023-05-25T05:26:41.265Z,15.26
2023-05-25T05:29:19.898Z,15.24
2023-05-25T05:31:48.331Z,15.62
2023-05-25T05:34:16.718Z,15.88
2023-05-25T05:36:56.531Z,16.09
2023-05-25T05:39:25.357Z,16.20
2023-05-25T05:41:53.248Z,16.33
2023-05-25T05:44:25.996Z,16.12
2023-05-25T05:46:59.992Z,16.39
2023-05-25T05:49:29.178Z,16.71
2023-05-25T05:51:57.568Z,17.39
2023-05-25T05:54:27.771Z,17.31
2023-05-25T05:56:56.176Z,17.09
2023-05-25T05:59:25.536Z,17.28
2023-05-25T06:01:53.665Z,17.04
2023-05-25T06:04:25.287Z,17.19
2023-05-25T06:06:53.277Z,17.18
2023-05-25T06:09:21.373Z,16.93
2023-05-25T06:11:49.289Z,17.09
2023-05-25T06:14:18.445Z,17.30
2023-05-25T06:16:47.773Z,17.49
2023-05-25T06:19:15.779Z,17.63
2023-05-25T06:21:43.660Z,17.27
2023-05-25T06:24:11.542Z,17.43
2023-05-25T06:26:39.568Z,17.36
2023-05-25T06:29:07.576Z,17.65
2023-05-25T06:31:36.440Z,17.90
2023-05-25T06:34:05.865Z,18.04
2023-05-25T06:36:33.758Z,18.11
2023-05-25T06:39:01.670Z,18.25
2023-05-25T06:41:30.772Z,17.99
2023-05-25T06:43:58.763Z,17.89
2023-05-25T06:46:33.030Z,17.95
2023-05-25T06:49:01.201Z,18.34
2023-05-25T06:51:31.206Z,18.38
2023-05-25T06:53:59.465Z,18.40
2023-05-25T06:56:27.972Z,18.52
2023-05-25T06:58:55.925Z,18.68
2023-05-25T07:01:23.884Z,18.10
2023-05-25T07:03:51.806Z,18.15
2023-05-25T07:06:19.675Z,18.30
2023-05-25T07:08:48.915Z,18.14
2023-05-25T07:11:20.637Z,18.42
2023-05-25T07:13:48.526Z,18.42
2023-05-25T07:16:16.626Z,18.35
2023-05-25T07:18:44.569Z,18.33
2023-05-25T07:21:12.463Z,18.32
2023-05-25T07:23:41.112Z,18.56
2023-05-25T07:26:10.637Z,18.51
2023-05-25T07:28:38.524Z,18.76
2023-05-25T07:31:06.485Z,18.69
2023-05-25T07:33:34.391Z,18.70
2023-05-25T07:36:02.248Z,18.71
2023-05-25T07:38:30.117Z,18.98
2023-05-25T07:40:58.020Z,18.86
2023-05-25T07:43:29.644Z,18.78
2023-05-25T07:45:57.728Z,18.83
2023-05-25T07:48:25.674Z,18.72
2023-05-25T07:50:53.619Z,18.56
2023-05-25T07:53:21.571Z,18.96
2023-05-25T07:55:49.548Z,19.12
2023-05-25T07:58:17.651Z,19.01
2023-05-25T08:00:46.884Z,19.03
2023-05-25T08:03:14.881Z,19.41
2023-05-25T08:05:44.251Z,19.37
2023-05-25T08:08:12.462Z,19.39
2023-05-25T08:10:40.563Z,19.48
2023-05-25T08:13:08.544Z,19.44
2023-05-25T08:15:36.497Z,19.67
2023-05-25T08:18:06.661Z,19.79
2023-05-25T08:20:34.940Z,19.80
2023-05-25T08:23:02.883Z,19.90
2023-05-25T08:25:30.764Z,19.96
2023-05-25T08:27:58.656Z,20.13
2023-05-25T08:30:26.556Z,20.09
2023-05-25T08:32:54.609Z,19.73
2023-05-25T08:35:23.925Z,19.97
2023-05-25T08:37:52.090Z,20.10
2023-05-25T08:40:23.718Z,19.79
2023-05-25T08:42:51.892Z,20.50
2023-05-25T08:45:33.696Z,20.71
2023-05-25T08:48:05.085Z,20.61
2023-05-25T08:50:35.323Z,20.45
2023-05-25T08:53:06.357Z,20.35
2023-05-25T08:55:38.757Z,20.43
2023-05-25T08:58:14.863Z,20.13
2023-05-25T09:00:50.377Z,20.44
2023-05-25T09:03:19.023Z,20.75
2023-05-25T09:05:48.678Z,20.68
2023-05-25T09:08:18.008Z,20.63
2023-05-25T09:10:46.019Z,20.95
2023-05-25T09:13:22.115Z,21.65
2023-05-25T09:15:52.098Z,21.79
2023-05-25T09:18:20.373Z,21.73
2023-05-25T09:20:50.038Z,21.62
2023-05-25T09:23:18.450Z,21.93
2023-05-25T09:25:47.541Z,22.41
2023-05-25T09:30:46.473Z,21.08
2023-05-25T09:33:17.589Z,21.01
2023-05-25T09:35:45.901Z,21.07
2023-05-25T09:38:16.582Z,22.91
2023-05-25T09:40:45.349Z,23.91
2023-05-25T09:43:21.947Z,23.25
2023-05-25T09:45:53.636Z,22.19
2023-05-25T09:48:23.080Z,21.30
2023-05-25T09:50:52.209Z,21.40
2023-05-25T09:53:21.793Z,21.13
2023-05-25T09:55:53.297Z,21.72
2023-05-25T09:58:24.770Z,22.44
2023-05-25T10:00:55.767Z,23.07
2023-05-25T10:03:23.854Z,23.48
2023-05-25T10:05:53.409Z,23.88
2023-05-25T10:08:27.879Z,23.63
2023-05-25T10:10:56.894Z,23.11
2023-05-25T10:13:28.214Z,23.95
2023-05-25T10:15:57.357Z,24.23
2023-05-25T10:18:29.151Z,24.37
2023-05-25T10:21:04.394Z,24.73
2023-05-25T10:23:40.247Z,25.22
2023-05-25T10:26:09.468Z,25.66
2023-05-25T10:28:40.629Z,25.28
2023-05-25T10:31:10.586Z,24.34
2023-05-25T10:33:38.824Z,25.19
2023-05-25T10:36:11.305Z,25.09
2023-05-25T10:38:44.620Z,24.84
2023-05-25T10:41:12.905Z,24.69
2023-05-25T10:43:41.695Z,25.44
2023-05-25T10:46:09.768Z,25.86
2023-05-25T10:48:38.619Z,26.43
2023-05-25T10:51:08.335Z,26.29
2023-05-25T10:53:38.047Z,25.90
2023-05-25T10:56:10.602Z,25.37
2023-05-25T10:58:42.942Z,24.86
2023-05-25T11:01:12.291Z,25.17
2023-05-25T11:03:55.701Z,25.36
2023-05-25T11:06:25.271Z,24.57
2023-05-25T11:08:55.958Z,24.32
2023-05-25T11:12:04.044Z,24.93
2023-05-25T11:14:33.951Z,25.20
2023-05-25T11:17:10.682Z,25.24
2023-05-25T11:19:47.953Z,24.72
2023-05-25T11:22:20.621Z,23.92
2023-05-25T11:24:49.231Z,24.73
2023-05-25T11:27:23.646Z,25.04
2023-05-25T11:29:52.304Z,24.03
2023-05-25T11:32:21.205Z,24.56
2023-05-25T11:34:49.732Z,24.65
2023-05-25T11:37:21.218Z,25.37
2023-05-25T11:39:49.725Z,25.63
2023-05-25T11:42:20.998Z,25.69
2023-05-25T11:44:49.153Z,25.24
2023-05-25T11:47:22.687Z,25.31
2023-05-25T11:49:50.730Z,24.61
2023-05-25T11:52:20.450Z,24.83
2023-05-25T11:54:48.563Z,25.35
2023-05-25T11:57:19.166Z,25.11
2023-05-25T11:59:51.073Z,24.16
2023-05-25T12:02:19.517Z,25.08
2023-05-25T12:04:55.164Z,25.07
2023-05-25T12:07:23.675Z,24.65
2023-05-25T12:09:51.810Z,23.54
2023-05-25T12:12:21.309Z,23.63
2023-05-25T12:14:50.026Z,23.28
2023-05-25T12:17:19.592Z,22.98
2023-05-25T12:19:47.865Z,22.91
2023-05-25T12:22:16.407Z,23.00
2023-05-25T12:24:44.506Z,22.48
2023-05-25T12:27:19.176Z,22.57
2023-05-25T12:29:48.830Z,22.18
2023-05-25T12:32:17.194Z,22.50
2023-05-25T12:34:45.290Z,21.82
2023-05-25T12:37:20.716Z,22.07
2023-05-25T12:39:50.631Z,22.40
2023-05-25T12:42:19.392Z,23.25
2023-05-25T12:44:48.784Z,23.68
2023-05-25T12:47:20.146Z,24.22
2023-05-25T12:49:51.340Z,23.76
2023-05-25T12:52:36.669Z,23.18
2023-05-25T12:55:21.276Z,22.72
2023-05-25T12:57:52.441Z,22.50
2023-05-25T13:00:23.737Z,22.95
2023-05-25T13:02:52.486Z,23.74
2023-05-25T13:05:25.112Z,22.95
2023-05-25T13:07:54.850Z,23.03
2023-05-25T13:10:23.274Z,23.08
2023-05-25T13:12:52.075Z,23.03
2023-05-25T13:15:22.106Z,23.29
2023-05-25T13:17:51.631Z,22.81
2023-05-25T13:20:21.320Z,23.16
2023-05-25T13:22:50.643Z,23.05
2023-05-25T13:25:19.457Z,23.06
2023-05-25T13:27:49.542Z,23.12
2023-05-25T13:30:18.006Z,23.17
2023-05-25T13:32:49.508Z,23.07
2023-05-25T13:35:34.005Z,23.15
2023-05-25T13:38:01.992Z,22.94
2023-05-25T13:40:30.061Z,22.28
2023-05-25T13:42:58.055Z,22.69
2023-05-25T13:45:26.529Z,22.89
2023-05-25T13:47:56.121Z,23.31
2023-05-25T13:50:24.123Z,23.33
2023-05-25T13:52:52.200Z,23.58
2023-05-25T13:55:20.156Z,23.52
2023-05-25T13:57:48.039Z,23.45
2023-05-25T14:00:16.481Z,23.69
2023-05-25T14:02:44.407Z,23.48
2023-05-25T14:05:13.718Z,23.86
2023-05-25T14:07:42.070Z,23.95
2023-05-25T14:10:10.897Z,24.01
2023-05-25T14:12:38.842Z,23.87
2023-05-25T14:15:07.886Z,23.53
2023-05-25T14:17:36.037Z,23.94
2023-05-25T14:20:04.649Z,23.66
2023-05-25T14:22:34.161Z,23.66
2023-05-25T14:25:02.039Z,23.74
2023-05-25T14:27:30.044Z,23.27
2023-05-25T14:29:57.988Z,23.61
2023-05-25T14:32:26.035Z,23.69
2023-05-25T14:34:53.992Z,23.95
2023-05-25T14:37:21.914Z,23.44
2023-05-25T14:39:51.213Z,23.48
2023-05-25T14:42:19.162Z,23.50
2023-05-25T14:44:47.136Z,23.44
2023-05-25T14:47:15.064Z,23.63
2023-05-25T14:49:43.705Z,24.07
2023-05-25T14:52:11.695Z,23.27
2023-05-25T14:54:44.622Z,22.95
2023-05-25T14:57:16.204Z,23.38
2023-05-25T14:59:44.260Z,23.39
2023-05-25T15:02:12.189Z,23.44
2023-05-25T15:04:40.128Z,23.88
2023-05-25T15:07:08.194Z,23.49
2023-05-25T15:09:36.721Z,23.88
2023-05-25T15:12:05.031Z,24.06
2023-05-25T15:14:35.224Z,23.31
2023-05-25T15:17:03.086Z,23.11
2023-05-25T15:19:31.025Z,23.41
2023-05-25T15:21:58.924Z,23.33
2023-05-25T15:24:26.925Z,23.51
2023-05-25T15:26:54.795Z,23.45
2023-05-25T15:29:22.705Z,23.10
2023-05-25T15:31:53.771Z,23.37
2023-05-25T15:34:21.762Z,23.12
2023-05-25T15:36:49.699Z,23.09
2023-05-25T15:39:17.754Z,22.90
2023-05-25T15:41:45.717Z,22.82
2023-05-25T15:44:13.657Z,22.86
2023-05-25T15:46:41.975Z,22.95
2023-05-25T15:49:11.913Z,22.81
2023-05-25T15:51:41.797Z,22.77
2023-05-25T15:54:12.823Z,22.87
2023-05-25T15:56:42.196Z,22.66
2023-05-25T15:59:12.125Z,22.92
2023-05-25T16:01:40.145Z,22.67
2023-05-25T16:04:08.210Z,22.65
2023-05-25T16:06:38.496Z,22.78
2023-05-25T16:09:06.817Z,22.79
2023-05-25T16:11:34.792Z,22.57
2023-05-25T16:14:02.881Z,22.76
2023-05-25T16:16:30.822Z,22.57
2023-05-25T16:18:58.943Z,22.66
2023-05-25T16:21:27.021Z,22.58
2023-05-25T16:23:56.310Z,22.77
2023-05-25T16:26:24.161Z,22.94
2023-05-25T16:28:52.041Z,22.56
2023-05-25T16:31:19.992Z,22.39
2023-05-25T16:33:47.909Z,22.54
2023-05-25T16:36:16.728Z,22.25
2023-05-25T16:38:45.811Z,22.48
2023-05-25T16:41:15.114Z,22.42
2023-05-25T16:43:42.998Z,22.30
2023-05-25T16:46:11.519Z,22.39
2023-05-25T16:48:39.488Z,22.46
2023-05-25T16:51:07.431Z,22.45
2023-05-25T16:53:35.332Z,22.08
2023-05-25T16:56:03.203Z,22.31
2023-05-25T16:58:32.534Z,22.28
2023-05-25T17:01:00.575Z,22.44
2023-05-25T17:03:28.645Z,22.41
2023-05-25T17:05:56.661Z,22.32
2023-05-25T17:08:24.666Z,21.96
2023-05-25T17:10:52.554Z,22.06
2023-05-25T17:13:21.054Z,21.98
2023-05-25T17:15:50.593Z,22.02
2023-05-25T17:18:18.663Z,21.53
2023-05-25T17:20:46.722Z,21.82
2023-05-25T17:23:16.713Z,21.47
2023-05-25T17:25:44.965Z,21.29
2023-05-25T17:28:13.036Z,21.68
2023-05-25T17:30:40.984Z,21.72
2023-05-25T17:33:10.416Z,21.61
2023-05-25T17:35:38.450Z,21.63
2023-05-25T17:38:06.366Z,21.51
2023-05-25T17:40:34.309Z,21.53
2023-05-25T17:43:02.256Z,21.57
2023-05-25T17:45:30.191Z,21.44
2023-05-25T17:47:58.781Z,21.42
2023-05-25T17:50:28.758Z,21.59
2023-05-25T17:52:56.651Z,21.66
2023-05-25T17:55:24.578Z,21.26
2023-05-25T17:57:52.595Z,21.20
2023-05-25T18:00:23.068Z,21.29
2023-05-25T18:02:51.911Z,20.98
2023-05-25T18:05:20.089Z,21.11
2023-05-25T18:07:49.442Z,20.93
2023-05-25T18:10:17.443Z,20.88
2023-05-25T18:12:46.233Z,20.76
2023-05-25T18:15:14.130Z,20.85
2023-05-25T18:17:42.390Z,20.92
2023-05-25T18:20:11.596Z,20.76
2023-05-25T18:22:39.632Z,20.83
2023-05-25T18:25:09.800Z,20.78
2023-05-25T18:27:37.725Z,20.65
2023-05-25T18:30:06.487Z,20.57
2023-05-25T18:32:34.456Z,20.47
2023-05-25T18:35:02.403Z,20.64
2023-05-25T18:37:34.188Z,20.36
2023-05-25T18:40:02.211Z,20.42
2023-05-25T18:42:31.598Z,20.41
2023-05-25T18:44:59.694Z,20.29
2023-05-25T18:47:27.774Z,20.40
2023-05-25T18:49:55.821Z,20.25
2023-05-25T18:52:23.764Z,20.44
2023-05-25T18:54:51.678Z,20.27
2023-05-25T18:57:19.787Z,20.12
2023-05-25T18:59:49.038Z,19.93
2023-05-25T19:02:16.975Z,20.13
2023-05-25T19:04:44.974Z,20.14
2023-05-25T19:07:12.945Z,19.97
2023-05-25T19:09:40.841Z,20.22
2023-05-25T19:12:09.384Z,20.07
2023-05-25T19:14:37.306Z,20.12
2023-05-25T19:17:06.721Z,20.18
2023-05-25T19:19:34.656Z,20.24
2023-05-25T19:22:02.661Z,20.31
2023-05-25T19:24:30.636Z,20.25
2023-05-25T19:26:58.535Z,20.11
2023-05-25T19:29:26.450Z,20.13
2023-05-25T19:31:54.442Z,19.86
2023-05-25T19:34:23.742Z,19.97
2023-05-25T19:37:00.038Z,19.98
2023-05-25T19:39:38.361Z,20.14
2023-05-25T19:42:06.565Z,19.99
2023-05-25T19:44:34.448Z,20.13
2023-05-25T19:47:03.446Z,19.92
2023-05-25T19:49:32.696Z,19.90
2023-05-25T19:52:03.442Z,19.82
2023-05-25T19:54:31.442Z,19.89
2023-05-25T19:56:59.335Z,19.92
2023-05-25T19:59:30.197Z,19.71
2023-05-25T20:01:58.403Z,19.50
2023-05-25T20:04:26.438Z,19.57
2023-05-25T20:06:55.951Z,19.23
2023-05-25T20:09:30.238Z,19.74
2023-05-25T20:11:58.921Z,19.70
2023-05-25T20:14:27.086Z,19.14
2023-05-25T20:16:55.957Z,19.24
2023-05-25T20:19:24.162Z,19.09
2023-05-25T20:21:52.276Z,19.50
2023-05-25T20:24:22.054Z,19.56
2023-05-25T20:26:50.210Z,19.67
2023-05-25T20:29:18.085Z,19.68
2023-05-25T20:31:45.967Z,19.20
2023-05-25T20:34:13.891Z,19.33
2023-05-25T20:36:41.760Z,19.55
2023-05-25T20:39:09.729Z,19.53
2023-05-25T20:41:39.048Z,19.57
2023-05-25T20:44:07.470Z,19.51
2023-05-25T20:46:36.108Z,19.45
2023-05-25T20:49:04.237Z,19.35
2023-05-25T20:51:32.679Z,19.37
2023-05-25T20:54:00.852Z,19.37
2023-05-25T20:56:28.788Z,19.30
2023-05-25T20:58:58.605Z,19.27
2023-05-25T21:01:26.598Z,19.26
2023-05-25T21:03:55.005Z,19.19
2023-05-25T21:06:23.297Z,19.20
2023-05-25T21:08:52.177Z,19.13
2023-05-25T21:11:20.247Z,19.13
2023-05-25T21:13:48.412Z,19.03
2023-05-25T21:16:17.862Z,18.81
2023-05-25T21:18:45.818Z,18.93
2023-05-25T21:21:15.759Z,19.00
2023-05-25T21:23:43.613Z,18.93
2023-05-25T21:26:11.535Z,18.87
2023-05-25T21:28:39.441Z,18.76
2023-05-25T21:31:07.730Z,18.57
2023-05-25T21:33:37.689Z,18.48
2023-05-25T21:36:05.666Z,18.46
2023-05-25T21:38:33.598Z,18.51
2023-05-25T21:41:01.454Z,18.54
2023-05-25T21:43:29.409Z,18.42
2023-05-25T21:45:57.392Z,18.18
2023-05-25T21:48:25.542Z,18.32
2023-05-25T21:50:54.999Z,18.20
2023-05-25T21:53:23.001Z,18.39
2023-05-25T21:55:52.757Z,18.38
2023-05-25T21:58:20.612Z,18.46
2023-05-25T22:00:48.681Z,18.46
2023-05-25T22:03:16.813Z,18.43
2023-05-25T22:05:44.996Z,18.41
2023-05-25T22:08:14.532Z,18.42
2023-05-25T22:10:42.397Z,18.28
2023-05-25T22:13:10.309Z,18.23
2023-05-25T22:15:38.219Z,18.29
2023-05-25T22:18:06.830Z,18.20
2023-05-25T22:20:38.436Z,18.32
2023-05-25T22:23:06.589Z,18.18
2023-05-25T22:25:35.905Z,17.91
2023-05-25T22:28:03.846Z,17.94
2023-05-25T22:30:31.832Z,17.82
2023-05-25T22:33:01.241Z,17.90
2023-05-25T22:35:29.190Z,17.63
2023-05-25T22:37:57.122Z,17.73
2023-05-25T22:40:25.043Z,17.68
2023-05-25T22:42:54.362Z,17.75
2023-05-25T22:45:22.482Z,17.78
2023-05-25T22:47:50.492Z,17.72
2023-05-25T22:50:18.556Z,17.64
2023-05-25T22:52:46.470Z,17.61
2023-05-25T22:55:14.379Z,17.45
2023-05-25T22:57:42.279Z,17.37
2023-05-25T23:00:12.622Z,17.31
2023-05-25T23:02:40.556Z,17.42
2023-05-25T23:05:09.806Z,17.17
2023-05-25T23:07:37.840Z,17.21
2023-05-25T23:10:07.058Z,17.18
2023-05-25T23:12:34.978Z,17.29
2023-05-25T23:15:02.898Z,17.27
2023-05-25T23:17:32.624Z,17.33
2023-05-25T23:20:01.960Z,17.09
2023-05-25T23:22:29.899Z,16.82
2023-05-25T23:24:57.775Z,16.94
2023-05-25T23:27:25.856Z,16.97
2023-05-25T23:29:53.935Z,16.81
2023-05-25T23:32:22.133Z,17.12
2023-05-25T23:34:51.477Z,16.84
2023-05-25T23:37:19.325Z,16.92
2023-05-25T23:39:47.223Z,17.04
2023-05-25T23:42:15.561Z,17.17
2023-05-25T23:44:43.463Z,16.80
2023-05-25T23:47:11.292Z,16.86
2023-05-25T23:49:39.148Z,17.04
2023-05-25T23:52:08.400Z,16.90
2023-05-25T23:54:36.264Z,17.02
2023-05-25T23:57:04.284Z,17.01
2023-05-25T23:59:32.269Z,16.95
